createdAt,value
2022-08-14T00:02:01.512Z,7.00
2022-08-14T00:04:35.673Z,7.30
2022-08-14T00:07:11.055Z,7.30
2022-08-14T00:09:55.233Z,7.90
2022-08-14T00:12:33.726Z,6.90
2022-08-14T00:15:16.071Z,7.20
2022-08-14T00:17:47.795Z,7.20
2022-08-14T00:20:23.705Z,7.30
2022-08-14T00:22:57.478Z,7.80
2022-08-14T00:25:41.547Z,7.30
2022-08-14T00:28:15.370Z,6.70
2022-08-14T00:30:47.913Z,6.70
2022-08-14T00:33:16.133Z,6.90
2022-08-14T00:36:35.578Z,7.00
2022-08-14T00:38:34.907Z,6.90
2022-08-14T00:41:06.569Z,7.30
2022-08-14T00:43:35.239Z,9.60
2022-08-14T00:46:32.347Z,8.20
2022-08-14T00:48:58.066Z,6.90
2022-08-14T00:51:37.559Z,7.70
2022-08-14T00:54:11.120Z,7.40
2022-08-14T00:56:49.143Z,7.60
2022-08-14T00:59:16.274Z,7.80
2022-08-14T01:01:44.378Z,8.00
2022-08-14T01:04:37.821Z,8.30
2022-08-14T01:07:00.230Z,9.50
2022-08-14T01:09:32.886Z,7.30
2022-08-14T01:12:03.249Z,6.50
2022-08-14T01:14:31.190Z,7.30
2022-08-14T01:16:58.896Z,7.50
2022-08-14T01:19:46.727Z,7.00
2022-08-14T01:24:47.233Z,7.20
2022-08-14T01:27:20.859Z,6.90
2022-08-14T01:29:59.468Z,7.00
2022-08-14T01:32:35.406Z,7.70
2022-08-14T01:35:18.333Z,7.00
2022-08-14T01:37:56.912Z,6.90
2022-08-14T01:40:36.323Z,7.60
2022-08-14T01:43:13.878Z,7.30
2022-08-14T01:45:41.871Z,6.70
2022-08-14T01:48:13.403Z,6.90
2022-08-14T01:50:42.420Z,7.20
2022-08-14T01:53:10.474Z,7.10
2022-08-14T01:55:38.911Z,7.10
2022-08-14T01:58:20.346Z,6.30
2022-08-14T02:00:57.927Z,6.90
2022-08-14T02:03:30.731Z,6.50
2022-08-14T02:05:59.352Z,6.90
2022-08-14T02:08:35.160Z,7.00
2022-08-14T02:11:22.155Z,6.70
2022-08-14T02:13:53.547Z,6.70
2022-08-14T02:16:29.058Z,7.00
2022-08-14T02:18:59.179Z,6.60
2022-08-14T02:21:31.225Z,6.70
2022-08-14T02:24:39.724Z,7.10
2022-08-14T02:28:19.066Z,6.60
2022-08-14T02:29:59.600Z,7.10
2022-08-14T02:32:30.525Z,8.00
2022-08-14T02:35:15.955Z,7.20
2022-08-14T02:37:48.440Z,7.50
2022-08-14T02:40:20.960Z,7.60
2022-08-14T02:43:00.565Z,7.30
2022-08-14T02:45:38.559Z,7.00
2022-08-14T02:49:02.031Z,7.00
2022-08-14T02:51:01.065Z,7.40
2022-08-14T02:53:29.727Z,7.80
2022-08-14T02:56:02.647Z,8.20
2022-08-14T02:58:37.637Z,7.10
2022-08-14T03:01:10.158Z,6.90
2022-08-14T03:03:38.838Z,6.40
2022-08-14T03:06:08.994Z,7.80
2022-08-14T03:08:38.465Z,6.60
2022-08-14T03:11:08.867Z,8.10
2022-08-14T03:13:38.990Z,8.60
2022-08-14T03:16:19.980Z,7.40
2022-08-14T03:18:57.704Z,7.40
2022-08-14T03:21:27.936Z,7.50
2022-08-14T03:24:16.450Z,7.00
2022-08-14T03:26:57.497Z,7.20
2022-08-14T03:29:29.553Z,7.60
2022-08-14T03:31:56.886Z,7.40
2022-08-14T03:34:52.798Z,7.70
2022-08-14T03:39:09.468Z,7.70
2022-08-14T03:39:59.571Z,8.10
2022-08-14T03:42:35.646Z,8.00
2022-08-14T03:45:25.121Z,10.00
2022-08-14T03:47:58.334Z,8.00
2022-08-14T03:50:31.663Z,7.70
2022-08-14T03:53:02.053Z,7.00
2022-08-14T03:55:30.500Z,7.30
2022-08-14T03:58:00.567Z,7.90
2022-08-14T04:00:43.350Z,6.70
2022-08-14T04:03:17.979Z,8.50
2022-08-14T04:05:49.028Z,7.80
2022-08-14T04:08:29.258Z,8.00
2022-08-14T04:11:02.963Z,7.10
2022-08-14T04:13:41.388Z,7.70
2022-08-14T04:16:12.728Z,7.40
2022-08-14T04:18:44.287Z,7.90
2022-08-14T04:21:12.657Z,7.80
2022-08-14T04:23:40.292Z,7.70
2022-08-14T04:26:14.995Z,8.40
2022-08-14T04:29:08.649Z,8.20
2022-08-14T04:32:58.927Z,8.10
2022-08-14T04:34:29.759Z,7.60
2022-08-14T04:37:21.920Z,7.80
2022-08-14T04:40:08.739Z,8.10
2022-08-14T04:42:54.631Z,8.60
2022-08-14T04:45:23.852Z,7.90
2022-08-14T04:48:10.612Z,8.00
2022-08-14T04:50:54.034Z,8.60
2022-08-14T04:53:26.479Z,8.70
2022-08-14T04:56:06.169Z,8.20
2022-08-14T04:58:58.787Z,8.20
2022-08-14T05:01:29.514Z,8.90
2022-08-14T05:04:08.074Z,7.70
2022-08-14T05:06:39.009Z,7.50
2022-08-14T05:09:07.220Z,8.40
2022-08-14T05:11:37.495Z,8.20
2022-08-14T05:14:33.143Z,9.40
2022-08-14T05:16:52.443Z,9.10
2022-08-14T05:19:29.293Z,9.30
2022-08-14T05:22:17.421Z,7.90
2022-08-14T05:24:50.254Z,8.40
2022-08-14T05:27:23.267Z,8.60
2022-08-14T05:29:53.103Z,8.50
2022-08-14T05:32:20.742Z,8.40
2022-08-14T05:34:47.694Z,7.10
2022-08-14T05:37:15.276Z,7.80
2022-08-14T05:39:42.876Z,6.50
2022-08-14T05:42:21.904Z,8.00
2022-08-14T05:44:55.575Z,8.40
2022-08-14T05:47:24.070Z,7.60
2022-08-14T05:49:53.253Z,7.90
2022-08-14T05:52:26.484Z,8.10
2022-08-14T05:55:08.979Z,7.90
2022-08-14T05:57:49.969Z,7.50
2022-08-14T06:00:28.325Z,8.80
2022-08-14T06:02:59.974Z,8.40
2022-08-14T06:05:29.447Z,8.30
2022-08-14T06:07:58.965Z,8.10
2022-08-14T06:10:28.973Z,9.20
2022-08-14T06:13:03.412Z,7.90
2022-08-14T06:15:30.872Z,7.90
2022-08-14T06:18:00.031Z,7.60
2022-08-14T06:20:30.116Z,8.30
2022-08-14T06:22:59.018Z,8.20
2022-08-14T06:25:27.124Z,8.30
2022-08-14T06:27:55.506Z,7.30
2022-08-14T06:30:41.877Z,7.40
2022-08-14T06:33:15.729Z,7.60
2022-08-14T06:35:43.811Z,7.30
2022-08-14T06:38:23.343Z,7.50
2022-08-14T06:40:51.715Z,7.80
2022-08-14T06:43:20.481Z,8.40
2022-08-14T06:48:24.536Z,8.30
2022-08-14T06:50:53.777Z,7.40
2022-08-14T06:53:22.289Z,8.50
2022-08-14T06:56:00.881Z,7.80
2022-08-14T06:58:31.592Z,7.50
2022-08-14T07:01:23.027Z,8.20
2022-08-14T07:04:18.816Z,7.50
2022-08-14T07:06:55.776Z,8.50
2022-08-14T07:09:27.678Z,8.20
2022-08-14T07:11:55.041Z,8.30
2022-08-14T07:14:23.762Z,7.20
2022-08-14T07:16:50.611Z,8.00
2022-08-14T07:19:20.730Z,8.10
2022-08-14T07:21:48.811Z,8.30
2022-08-14T07:24:21.890Z,7.90
2022-08-14T07:26:53.377Z,7.20
2022-08-14T07:29:25.997Z,7.90
2022-08-14T07:31:53.570Z,8.00
2022-08-14T07:34:26.351Z,8.10
2022-08-14T07:37:05.238Z,7.90
2022-08-14T07:39:34.455Z,8.00
2022-08-14T07:42:02.398Z,8.30
2022-08-14T07:44:35.785Z,7.90
2022-08-14T07:47:15.318Z,7.30
2022-08-14T07:49:58.565Z,7.70
2022-08-14T07:52:30.668Z,8.20
2022-08-14T07:55:00.095Z,7.30
2022-08-14T07:57:27.851Z,7.80
2022-08-14T07:59:54.781Z,7.60
2022-08-14T08:02:22.533Z,8.40
2022-08-14T08:04:54.624Z,8.60
2022-08-14T08:07:29.921Z,8.70
2022-08-14T08:10:00.927Z,8.40
2022-08-14T08:12:32.225Z,8.30
2022-08-14T08:15:03.448Z,8.80
2022-08-14T08:17:42.615Z,7.50
2022-08-14T08:20:27.452Z,7.60
2022-08-14T08:23:00.493Z,8.30
2022-08-14T08:25:39.949Z,9.10
2022-08-14T08:28:25.248Z,8.20
2022-08-14T08:30:55.896Z,8.50
2022-08-14T08:33:27.291Z,8.60
2022-08-14T08:36:01.235Z,8.30
2022-08-14T08:39:16.919Z,8.90
2022-08-14T08:41:15.291Z,8.10
2022-08-14T08:43:46.132Z,8.40
2022-08-14T08:46:23.690Z,8.60
2022-08-14T08:51:44.011Z,8.80
2022-08-14T08:54:18.633Z,8.40
2022-08-14T08:56:52.254Z,8.40
2022-08-14T08:59:20.920Z,9.80
2022-08-14T09:01:59.947Z,8.10
2022-08-14T09:04:36.757Z,9.00
2022-08-14T09:07:13.994Z,8.60
2022-08-14T09:09:54.551Z,8.60
2022-08-14T09:12:27.051Z,8.80
2022-08-14T09:15:01.173Z,8.80
2022-08-14T09:17:28.596Z,8.90
2022-08-14T09:19:56.552Z,8.70
2022-08-14T09:22:36.202Z,9.20
2022-08-14T09:25:11.565Z,8.90
2022-08-14T09:27:42.375Z,9.30
2022-08-14T09:30:31.288Z,9.50
2022-08-14T09:33:11.539Z,10.70
2022-08-14T09:36:18.401Z,8.10
2022-08-14T09:39:22.971Z,9.00
2022-08-14T09:42:20.691Z,8.00
2022-08-14T09:45:15.351Z,10.00
2022-08-14T09:47:52.109Z,9.50
2022-08-14T09:50:32.566Z,9.10
2022-08-14T09:53:18.360Z,8.60
2022-08-14T09:55:58.216Z,8.80
2022-08-14T09:58:37.159Z,10.10
2022-08-14T10:01:15.487Z,9.20
2022-08-14T10:03:55.799Z,8.80
2022-08-14T10:06:28.695Z,9.10
2022-08-14T10:09:02.749Z,8.50
2022-08-14T10:11:37.305Z,9.60
2022-08-14T10:14:29.482Z,8.80
2022-08-14T10:17:05.967Z,9.10
2022-08-14T10:19:35.542Z,8.60
2022-08-14T10:23:11.982Z,10.10
2022-08-14T10:24:59.995Z,9.00
2022-08-14T10:27:28.887Z,8.50
2022-08-14T10:30:00.319Z,9.00
2022-08-14T10:32:51.145Z,9.40
2022-08-14T10:35:16.255Z,9.80
2022-08-14T10:37:49.121Z,8.90
2022-08-14T10:40:38.108Z,9.10
2022-08-14T10:43:26.369Z,9.20
2022-08-14T10:46:21.656Z,9.00
2022-08-14T10:49:03.887Z,9.90
2022-08-14T10:51:39.595Z,9.40
2022-08-14T10:54:16.907Z,9.00
2022-08-14T10:56:57.876Z,9.00
2022-08-14T10:59:35.450Z,9.40
2022-08-14T11:02:17.548Z,9.10
2022-08-14T11:04:45.581Z,8.40
2022-08-14T11:10:01.202Z,8.10
2022-08-14T11:12:47.262Z,8.50
2022-08-14T11:15:19.758Z,8.50
2022-08-14T11:17:48.290Z,9.40
2022-08-14T11:20:19.737Z,7.70
2022-08-14T11:22:58.894Z,8.80
2022-08-14T11:25:43.425Z,8.50
2022-08-14T11:28:18.792Z,9.30
2022-08-14T11:30:50.369Z,8.80
2022-08-14T11:33:25.964Z,8.30
2022-08-14T11:35:53.688Z,9.30
2022-08-14T11:38:35.250Z,10.50
2022-08-14T11:41:05.652Z,9.50
2022-08-14T11:43:56.216Z,10.00
2022-08-14T11:46:30.727Z,8.80
2022-08-14T11:49:06.362Z,12.00
2022-08-14T11:51:53.652Z,9.50
2022-08-14T11:54:34.809Z,9.80
2022-08-14T11:57:04.486Z,9.40
2022-08-14T11:59:34.768Z,8.40
2022-08-14T12:03:00.281Z,9.30
2022-08-14T12:05:09.157Z,9.30
2022-08-14T12:07:48.506Z,9.40
2022-08-14T12:10:26.390Z,10.20
2022-08-14T12:13:17.605Z,9.20
2022-08-14T12:15:49.206Z,8.90
2022-08-14T12:18:30.022Z,8.60
2022-08-14T12:20:59.405Z,9.40
2022-08-14T12:23:27.602Z,9.90
2022-08-14T12:26:39.995Z,8.80
2022-08-14T12:29:13.344Z,9.30
2022-08-14T12:31:44.876Z,9.90
2022-08-14T12:34:19.966Z,10.50
2022-08-14T12:36:48.390Z,10.10
2022-08-14T12:39:26.001Z,10.80
2022-08-14T12:42:00.919Z,10.20
2022-08-14T12:44:31.766Z,9.50
2022-08-14T12:47:16.427Z,10.80
2022-08-14T12:49:54.316Z,10.10
2022-08-14T12:52:36.193Z,9.90
2022-08-14T12:55:18.270Z,11.10
2022-08-14T12:57:49.410Z,11.60
2022-08-14T13:00:23.952Z,9.10
2022-08-14T13:02:55.398Z,10.30
2022-08-14T13:05:27.783Z,9.10
2022-08-14T13:07:56.874Z,8.90
2022-08-14T13:10:51.141Z,9.40
2022-08-14T13:13:15.063Z,9.20
2022-08-14T13:15:47.235Z,9.50
2022-08-14T13:18:33.688Z,9.40
2022-08-14T13:21:05.039Z,10.00
2022-08-14T13:23:36.278Z,9.10
2022-08-14T13:26:04.468Z,10.30
2022-08-14T13:28:39.718Z,9.90
2022-08-14T13:31:29.840Z,9.10
2022-08-14T13:33:59.616Z,9.00
2022-08-14T13:36:51.780Z,9.30
2022-08-14T13:39:19.094Z,9.40
2022-08-14T13:41:47.520Z,9.40
2022-08-14T13:44:26.302Z,9.00
2022-08-14T13:46:53.237Z,8.50
2022-08-14T13:49:20.113Z,9.00
2022-08-14T13:51:57.204Z,9.10
2022-08-14T13:54:29.356Z,8.50
2022-08-14T13:57:00.360Z,11.50
2022-08-14T13:59:38.305Z,9.60
2022-08-14T14:02:08.054Z,8.80
2022-08-14T14:04:49.378Z,11.00
2022-08-14T14:07:21.257Z,8.40
2022-08-14T14:09:55.658Z,8.20
2022-08-14T14:12:36.505Z,7.70
2022-08-14T14:15:14.227Z,8.60
2022-08-14T14:17:46.092Z,8.50
2022-08-14T14:20:35.023Z,8.90
2022-08-14T14:23:09.725Z,9.60
2022-08-14T14:25:48.073Z,8.60
2022-08-14T14:28:17.074Z,8.10
2022-08-14T14:30:57.330Z,8.00
2022-08-14T14:33:48.698Z,7.90
2022-08-14T14:39:00.993Z,7.80
2022-08-14T14:41:43.527Z,7.70
2022-08-14T14:44:15.522Z,8.20
2022-08-14T14:46:49.913Z,7.60
2022-08-14T14:49:21.482Z,7.80
2022-08-14T14:51:52.294Z,7.80
2022-08-14T14:54:31.907Z,7.40
2022-08-14T14:57:09.394Z,7.80
2022-08-14T14:59:37.140Z,7.30
2022-08-14T15:02:08.147Z,7.50
2022-08-14T15:04:38.350Z,7.90
2022-08-14T15:07:06.690Z,8.00
2022-08-14T15:12:02.226Z,8.00
2022-08-14T15:14:55.385Z,8.00
2022-08-14T15:17:28.512Z,7.80
2022-08-14T15:20:30.392Z,7.40
2022-08-14T15:23:11.955Z,7.70
2022-08-14T15:25:53.134Z,8.10
2022-08-14T15:28:23.259Z,7.90
2022-08-14T15:30:58.832Z,7.80
2022-08-14T15:34:00.912Z,8.70
2022-08-14T15:36:34.692Z,8.60
2022-08-14T15:39:03.398Z,8.90
2022-08-14T15:44:24.646Z,8.20
2022-08-14T15:46:55.920Z,8.50
2022-08-14T15:49:28.454Z,8.20
2022-08-14T15:52:00.188Z,8.50
2022-08-14T15:54:31.408Z,8.70
2022-08-14T15:57:03.003Z,8.40
2022-08-14T15:59:53.949Z,7.60
2022-08-14T16:02:24.378Z,8.10
2022-08-14T16:04:55.271Z,7.90
2022-08-14T16:07:26.957Z,7.30
2022-08-14T16:10:25.308Z,8.20
2022-08-14T16:15:16.955Z,7.60
2022-08-14T16:17:45.485Z,8.00
2022-08-14T16:25:40.252Z,7.80
2022-08-14T16:28:07.800Z,8.70
2022-08-14T16:30:35.389Z,7.10
2022-08-14T16:33:05.249Z,8.90
2022-08-14T16:35:43.119Z,8.30
2022-08-14T16:38:46.435Z,7.40
2022-08-14T16:41:23.078Z,9.60
2022-08-14T16:43:59.426Z,10.20
2022-08-14T16:46:31.518Z,8.20
2022-08-14T16:49:01.728Z,8.80
2022-08-14T16:51:30.503Z,8.10
2022-08-14T16:54:04.645Z,8.50
2022-08-14T16:56:48.106Z,7.60
2022-08-14T16:59:19.593Z,7.60
2022-08-14T17:01:56.975Z,7.80
2022-08-14T17:04:29.721Z,7.20
2022-08-14T17:07:01.366Z,5.90
2022-08-14T17:09:33.314Z,6.60
2022-08-14T17:12:34.863Z,7.30
2022-08-14T17:15:11.114Z,5.80
2022-08-14T17:17:38.067Z,6.80
2022-08-14T17:20:33.903Z,6.10
2022-08-14T17:23:00.020Z,6.70
2022-08-14T17:25:30.655Z,6.50
2022-08-14T17:28:51.329Z,6.50
2022-08-14T17:31:12.261Z,6.50
2022-08-14T17:33:44.763Z,6.00
2022-08-14T17:36:23.001Z,6.20
2022-08-14T17:39:06.686Z,5.80
2022-08-14T17:42:02.789Z,7.50
2022-08-14T17:44:33.993Z,6.50
2022-08-14T17:47:13.280Z,6.40
2022-08-14T17:49:47.620Z,6.90
2022-08-14T17:52:34.922Z,6.90
2022-08-14T17:57:58.307Z,6.80
2022-08-14T18:00:25.589Z,6.90
2022-08-14T18:02:57.240Z,7.30
2022-08-14T18:06:06.946Z,8.60
2022-08-14T18:08:34.140Z,6.40
2022-08-14T18:11:02.119Z,6.60
2022-08-14T18:13:51.399Z,6.30
2022-08-14T18:16:22.098Z,6.00
2022-08-14T18:18:51.204Z,6.00
2022-08-14T18:21:25.622Z,6.00
2022-08-14T18:24:28.412Z,6.70
2022-08-14T18:27:23.155Z,6.70
2022-08-14T18:29:55.306Z,6.00
2022-08-14T18:32:47.179Z,6.70
2022-08-14T18:35:46.164Z,6.60
2022-08-14T18:38:45.986Z,8.30
2022-08-14T18:41:36.183Z,6.90
2022-08-14T18:44:10.485Z,6.70
2022-08-14T18:47:08.372Z,8.20
2022-08-14T18:49:57.593Z,6.30
2022-08-14T18:52:35.410Z,6.50
2022-08-14T18:55:14.489Z,8.50
2022-08-14T18:57:58.276Z,7.60
2022-08-14T19:00:42.000Z,6.40
2022-08-14T19:03:30.023Z,6.60
2022-08-14T19:06:02.110Z,7.10
2022-08-14T19:08:43.501Z,6.00
2022-08-14T19:11:37.116Z,6.90
2022-08-14T19:14:05.736Z,7.60
2022-08-14T19:16:37.853Z,7.70
2022-08-14T19:19:12.872Z,8.30
2022-08-14T19:21:55.583Z,9.10
2022-08-14T19:24:44.155Z,8.20
2022-08-14T19:27:19.618Z,6.20
2022-08-14T19:30:20.431Z,5.50
2022-08-14T19:32:57.146Z,5.70
2022-08-14T19:35:39.672Z,5.80
2022-08-14T19:38:47.067Z,6.20
2022-08-14T19:41:18.627Z,5.10
2022-08-14T19:43:52.262Z,5.80
2022-08-14T19:46:37.848Z,5.50
2022-08-14T19:49:06.814Z,5.10
2022-08-14T19:51:43.932Z,5.20
2022-08-14T19:54:13.271Z,5.50
2022-08-14T19:56:45.040Z,5.80
2022-08-14T19:59:19.352Z,6.20
2022-08-14T20:01:51.700Z,6.50
2022-08-14T20:04:47.054Z,5.70
2022-08-14T20:07:27.893Z,5.80
2022-08-14T20:11:12.244Z,5.60
2022-08-14T20:13:23.706Z,5.60
2022-08-14T20:15:51.025Z,5.20
2022-08-14T20:18:48.610Z,4.80
2022-08-14T20:21:13.251Z,5.60
2022-08-14T20:23:40.974Z,6.40
2022-08-14T20:26:32.032Z,5.90
2022-08-14T20:29:05.222Z,5.90
2022-08-14T20:31:36.679Z,6.40
2022-08-14T20:34:18.620Z,4.90
2022-08-14T20:37:09.795Z,5.20
2022-08-14T20:39:43.562Z,5.30
2022-08-14T20:42:35.182Z,5.30
2022-08-14T20:45:19.997Z,4.90
2022-08-14T20:48:01.311Z,5.70
2022-08-14T20:50:30.923Z,5.90
2022-08-14T20:53:00.778Z,5.40
2022-08-14T20:55:41.477Z,6.00
2022-08-14T20:58:38.646Z,5.80
2022-08-14T21:01:17.986Z,6.10
2022-08-14T21:03:57.212Z,6.50
2022-08-14T21:07:22.751Z,6.50
2022-08-14T21:09:43.778Z,5.80
2022-08-14T21:12:34.208Z,6.40
2022-08-14T21:15:00.048Z,6.50
2022-08-14T21:17:29.565Z,6.40
2022-08-14T21:19:56.759Z,5.50
2022-08-14T21:22:26.315Z,6.70
2022-08-14T21:25:01.557Z,6.20
2022-08-14T21:27:37.465Z,6.70
2022-08-14T21:30:08.726Z,6.60
2022-08-14T21:32:46.946Z,6.50
2022-08-14T21:35:19.544Z,8.70
2022-08-14T21:37:48.815Z,5.70
2022-08-14T21:40:41.629Z,5.30
2022-08-14T21:43:07.018Z,5.10
2022-08-14T21:45:53.587Z,5.00
2022-08-14T21:48:29.434Z,5.30
2022-08-14T21:51:55.130Z,5.20
2022-08-14T21:53:59.123Z,5.40
2022-08-14T21:56:39.151Z,7.00
2022-08-14T21:59:17.539Z,7.40
2022-08-14T22:02:00.803Z,6.60
2022-08-14T22:04:40.216Z,6.40
2022-08-14T22:07:16.923Z,5.40
2022-08-14T22:09:45.566Z,6.00
2022-08-14T22:12:57.305Z,5.50
2022-08-14T22:15:15.943Z,5.60
2022-08-14T22:17:44.389Z,5.80
2022-08-14T22:20:16.352Z,5.60
2022-08-14T22:22:45.146Z,5.50
2022-08-14T22:25:17.217Z,5.60
2022-08-14T22:27:56.015Z,6.20
2022-08-14T22:32:56.268Z,5.70
2022-08-14T22:35:26.470Z,5.90
2022-08-14T22:38:01.480Z,5.90
2022-08-14T22:41:02.943Z,5.90
2022-08-14T22:43:31.715Z,4.90
2022-08-14T22:46:02.438Z,6.30
2022-08-14T22:48:29.822Z,5.90
2022-08-14T22:50:57.141Z,5.10
2022-08-14T22:53:29.327Z,6.50
2022-08-14T22:55:58.063Z,5.90
2022-08-14T22:58:30.536Z,5.50
2022-08-14T23:01:00.587Z,6.40
2022-08-14T23:03:28.735Z,8.60
2022-08-14T23:05:56.836Z,5.70
2022-08-14T23:09:01.829Z,5.80
2022-08-14T23:11:13.343Z,6.60
2022-08-14T23:13:43.728Z,5.90
2022-08-14T23:16:20.029Z,5.80
2022-08-14T23:18:53.812Z,6.50
2022-08-14T23:21:24.331Z,5.60
2022-08-14T23:23:55.015Z,6.20
2022-08-14T23:26:48.721Z,5.60
2022-08-14T23:29:14.107Z,5.40
2022-08-14T23:31:44.807Z,5.90
2022-08-14T23:34:20.966Z,6.50
2022-08-14T23:36:53.271Z,5.00
2022-08-14T23:39:31.775Z,5.10
2022-08-14T23:42:03.951Z,6.10
2022-08-14T23:44:35.138Z,5.50
2022-08-14T23:47:11.891Z,5.20
2022-08-14T23:50:00.521Z,6.10
2022-08-14T23:52:51.543Z,5.70
2022-08-14T23:55:21.787Z,5.90
